This is the latest recevied weather packets stored in our database for station/object E22FEY-1. If no packets are shown the sender has not sent any weather packets the latest 1 day(s).
| Time | Temp. | Humidity | Pressure | Rain* | Wind** | Luminosity | Snow |
|---|---|---|---|---|---|---|---|
| 1836274833 | 33.89° C | 51% | 1008 hPa | - | 0 m/s | 0 W/m² | - |
| 1836273908 | 33.33° C | 55% | 1009 hPa | - | 0 m/s | 0 W/m² | - |
| 1778033125 | 38.89° C | 41% | 1010 hPa | - | 0 m/s | 0 W/m² | - |
| 1778032201 | 38.89° C | 41% | 1010 hPa | - | 0 m/s | 0 W/m² | - |
| 1778031276 | 38.33° C | 44% | 1010 hPa | - | 0 m/s | 0 W/m² | - |
| 1778030352 | 38.33° C | 42% | 1009 hPa | - | 0 m/s | 0 W/m² | - |
| 1778029428 | 37.78° C | 42% | 1009 hPa | - | 0 m/s | 0 W/m² | - |
| 1778028504 | 36.67° C | 45% | 1009 hPa | - | 0 m/s | 0 W/m² | - |
| 1778027579 | 35° C | 51% | 1009 hPa | - | 0 m/s | 0 W/m² | - |
| 1778026655 | 32.22° C | 60% | 1009 hPa | - | 0 m/s | 0 W/m² | - |
| 1778025731 | 31.67° C | 65% | 1009 hPa | - | 0 m/s | 0 W/m² | - |
| 1778024806 | 32.22° C | 64% | 1008 hPa | - | 0 m/s | 0 W/m² | - |
| 1778023881 | 32.78° C | 64% | 1008 hPa | - | 0 m/s | 0 W/m² | - |
| 1778022957 | 32.22° C | 64% | 1008 hPa | - | 0 m/s | 0 W/m² | - |
| 1778022033 | 32.22° C | 65% | 1008 hPa | - | 0 m/s | 0 W/m² | - |
| 1778021108 | 32.22° C | 64% | 1008 hPa | - | 0 m/s | 0 W/m² | - |
| 1778020185 | 32.78° C | 63% | 1008 hPa | - | 0 m/s | 0 W/m² | - |
| 1778019260 | 32.78° C | 63% | 1008 hPa | - | 0 m/s | 0 W/m² | - |
| 1778018336 | 32.22° C | 63% | 1007 hPa | - | 0 m/s | 0 W/m² | - |
| 1778017411 | 32.22° C | 63% | 1007 hPa | - | 0 m/s | 0 W/m² | - |
| 1778016486 | 32.22° C | 63% | 1007 hPa | - | 0 m/s | 0 W/m² | - |
| 1778015563 | 32.78° C | 62% | 1007 hPa | - | 0 m/s | 0 W/m² | - |
| 1778014638 | 32.78° C | 62% | 1007 hPa | - | 0 m/s | 0 W/m² | - |
| 1778013714 | 32.78° C | 62% | 1007 hPa | - | 0 m/s | 0 W/m² | - |
| 1778012790 | 32.78° C | 62% | 1007 hPa | - | 0 m/s | 0 W/m² | - |
* Rain since midnight (hover to see other rain measurements)
** Current wind speed in m/s (hover to see current wind gust speed)